الصفحة الرئيسية
METAR-TAF:

METAR-TAF

مطار :

سيوداد خواريز, المكسيك

دائرة عرض: 31-38N, خط طول: 106-26W, ارتفاع: 1171 متر

مراقبة الطقس الحالي

تاريخ ووقت الإصدار 54 دقيقة قبل الساعة 20:40UTC
ريح 10 عقدة من الشرق
درجة الحرارة 14°درجة مئوية
الرطوبة 36%
ضغط 1022 hPa
الرؤية: 16.1 كم
غيوم مفككة على ارتفاع 11000 قدم
غيوم مفككة على ارتفاع 20000 قدم

METAR: MMCS 182040Z 09010KT 10SM BKN110 BKN200 14/M01 A3019 RMK SLP174 57019 951 8/022

زمن: 14:34 (21:34 UTC)

توقعات

تاريخ ووقت الإصدار 4ساعات و 26 دقيقة قبل الساعة 17:08UTC
التوقعات صالحة من18 الساعة 18 UTC إلى 19 الساعة 18 UTC
ريح 15 عقدة من الشرق
الرؤية: 10 كم
غيوم متفرقة على ارتفاع 10000 قدم
غيوم مفككة على ارتفاع 20000 قدم
مؤقت
من 18 الساعة 20 UTC إلى 18 الساعة 24 UTC
غيوم مفككة على ارتفاع 4000 قدم
من 19 الساعة 0300 UTC
ريح عقدة من الشمال
الرؤية: 10 كم
غيوم متفرقة على ارتفاع 20000 قدم

TAF: MMCS 181708Z 1818/1918 09015KT P6SM SCT100 BKN200 TEMPO 1820/1824 BKN040 FM190300 00000KT P6SM SCT200

أرصاد الطقس والتوقعات من أكثر من 4000 مطار (تقارير الطقس للمطار METAR والتنبؤ بالطقس بالمطارTAF).

المحطات المتاحة هي النقط الصفراء والحمراء على الخريطة.

حرك المؤشر فوق النقطة لمعرفة اسم المحطة.

ثم انقر لمعرفة أرصاد وتوقعات الطقس.

لتغيير الخارطة: اضغط على الأزرار الخضراء مع رمز الصليب الأسود للتكبير. على الزر الأخضر مع شرطة للتصغير، أو على الأسهم الخضراء للخرائط المجاورة.


METAR-TAF: